sensor_id;sensor_type;location;lat;lon;timestamp;temperature;humidity
41928;DHT22;27616;51.420;6.788;2023-05-20T00:00:59;12.50;99.90
41928;DHT22;27616;51.420;6.788;2023-05-20T00:03:24;12.50;99.90
41928;DHT22;27616;51.420;6.788;2023-05-20T00:05:50;12.40;99.90
41928;DHT22;27616;51.420;6.788;2023-05-20T00:08:17;12.40;99.90
41928;DHT22;27616;51.420;6.788;2023-05-20T00:10:43;12.40;99.90
41928;DHT22;27616;51.420;6.788;2023-05-20T00:13:09;12.40;99.90
41928;DHT22;27616;51.420;6.788;2023-05-20T00:15:35;12.30;99.90
41928;DHT22;27616;51.420;6.788;2023-05-20T00:18:01;12.30;99.90
41928;DHT22;27616;51.420;6.788;2023-05-20T00:20:27;12.30;99.90
41928;DHT22;27616;51.420;6.788;2023-05-20T00:22:53;12.30;99.90
41928;DHT22;27616;51.420;6.788;2023-05-20T00:25:19;12.30;99.90
41928;DHT22;27616;51.420;6.788;2023-05-20T00:27:45;12.30;99.90
41928;DHT22;27616;51.420;6.788;2023-05-20T00:30:11;12.30;99.90
41928;DHT22;27616;51.420;6.788;2023-05-20T00:32:37;12.30;99.90
41928;DHT22;27616;51.420;6.788;2023-05-20T00:35:03;12.30;99.90
41928;DHT22;27616;51.420;6.788;2023-05-20T00:37:29;12.30;99.90
41928;DHT22;27616;51.420;6.788;2023-05-20T00:39:55;12.30;99.90
41928;DHT22;27616;51.420;6.788;2023-05-20T00:44:47;12.30;99.90
41928;DHT22;27616;51.420;6.788;2023-05-20T00:47:15;12.20;99.90
41928;DHT22;27616;51.420;6.788;2023-05-20T00:49:43;12.10;99.90
41928;DHT22;27616;51.420;6.788;2023-05-20T00:52:09;12.00;99.90
41928;DHT22;27616;51.420;6.788;2023-05-20T00:54:35;12.00;99.90
41928;DHT22;27616;51.420;6.788;2023-05-20T00:57:02;11.90;99.90
41928;DHT22;27616;51.420;6.788;2023-05-20T00:59:28;11.90;99.90
41928;DHT22;27616;51.420;6.788;2023-05-20T01:01:53;11.90;99.90
41928;DHT22;27616;51.420;6.788;2023-05-20T01:04:20;11.80;99.90
41928;DHT22;27616;51.420;6.788;2023-05-20T01:06:46;11.80;99.90
41928;DHT22;27616;51.420;6.788;2023-05-20T01:09:12;11.80;99.90
41928;DHT22;27616;51.420;6.788;2023-05-20T01:11:46;11.70;99.90
41928;DHT22;27616;51.420;6.788;2023-05-20T01:14:15;11.70;99.90
41928;DHT22;27616;51.420;6.788;2023-05-20T01:16:42;11.70;99.90
41928;DHT22;27616;51.420;6.788;2023-05-20T01:19:19;11.60;99.90
41928;DHT22;27616;51.420;6.788;2023-05-20T01:21:47;11.60;99.90
41928;DHT22;27616;51.420;6.788;2023-05-20T01:24:15;11.60;99.90
41928;DHT22;27616;51.420;6.788;2023-05-20T01:26:41;11.60;99.90
41928;DHT22;27616;51.420;6.788;2023-05-20T01:29:07;11.60;99.90
41928;DHT22;27616;51.420;6.788;2023-05-20T01:31:36;11.50;99.90
41928;DHT22;27616;51.420;6.788;2023-05-20T01:34:03;11.50;99.90
41928;DHT22;27616;51.420;6.788;2023-05-20T01:36:30;11.50;99.90
41928;DHT22;27616;51.420;6.788;2023-05-20T01:38:57;11.50;99.90
41928;DHT22;27616;51.420;6.788;2023-05-20T01:41:24;11.40;99.90
41928;DHT22;27616;51.420;6.788;2023-05-20T01:43:52;11.40;99.90
41928;DHT22;27616;51.420;6.788;2023-05-20T01:46:19;11.40;99.90
41928;DHT22;27616;51.420;6.788;2023-05-20T01:48:47;11.40;99.90
41928;DHT22;27616;51.420;6.788;2023-05-20T01:51:13;11.30;99.90
41928;DHT22;27616;51.420;6.788;2023-05-20T01:53:39;11.30;99.90
41928;DHT22;27616;51.420;6.788;2023-05-20T01:56:05;11.30;99.90
41928;DHT22;27616;51.420;6.788;2023-05-20T01:58:30;11.30;99.90
41928;DHT22;27616;51.420;6.788;2023-05-20T02:00:56;11.30;99.90
41928;DHT22;27616;51.420;6.788;2023-05-20T02:03:22;11.30;99.90
41928;DHT22;27616;51.420;6.788;2023-05-20T02:05:48;11.30;99.90
41928;DHT22;27616;51.420;6.788;2023-05-20T02:08:13;11.30;99.90
41928;DHT22;27616;51.420;6.788;2023-05-20T02:10:39;11.30;99.90
41928;DHT22;27616;51.420;6.788;2023-05-20T02:13:05;11.30;99.90
41928;DHT22;27616;51.420;6.788;2023-05-20T02:15:32;11.30;99.90
41928;DHT22;27616;51.420;6.788;2023-05-20T02:17:57;11.30;99.90
41928;DHT22;27616;51.420;6.788;2023-05-20T02:20:23;11.30;99.90
41928;DHT22;27616;51.420;6.788;2023-05-20T02:22:49;11.30;99.90
41928;DHT22;27616;51.420;6.788;2023-05-20T02:25:15;11.30;99.90
41928;DHT22;27616;51.420;6.788;2023-05-20T02:27:42;11.20;99.90
41928;DHT22;27616;51.420;6.788;2023-05-20T02:30:08;11.20;99.90
41928;DHT22;27616;51.420;6.788;2023-05-20T02:32:34;11.10;99.90
41928;DHT22;27616;51.420;6.788;2023-05-20T02:35:00;11.10;99.90
41928;DHT22;27616;51.420;6.788;2023-05-20T02:37:27;11.10;99.90
41928;DHT22;27616;51.420;6.788;2023-05-20T02:39:53;11.10;99.90
41928;DHT22;27616;51.420;6.788;2023-05-20T02:42:20;11.10;99.90
41928;DHT22;27616;51.420;6.788;2023-05-20T02:44:46;11.10;99.90
41928;DHT22;27616;51.420;6.788;2023-05-20T02:47:13;11.10;99.90
41928;DHT22;27616;51.420;6.788;2023-05-20T02:49:38;11.10;99.90
41928;DHT22;27616;51.420;6.788;2023-05-20T02:52:04;11.10;99.90
41928;DHT22;27616;51.420;6.788;2023-05-20T02:54:30;11.10;99.90
41928;DHT22;27616;51.420;6.788;2023-05-20T02:56:56;11.10;99.90
41928;DHT22;27616;51.420;6.788;2023-05-20T02:59:22;11.20;99.90
41928;DHT22;27616;51.420;6.788;2023-05-20T03:01:48;11.20;99.90
41928;DHT22;27616;51.420;6.788;2023-05-20T03:04:13;11.10;99.90
41928;DHT22;27616;51.420;6.788;2023-05-20T03:06:39;11.10;99.90
41928;DHT22;27616;51.420;6.788;2023-05-20T03:09:08;11.10;99.90
41928;DHT22;27616;51.420;6.788;2023-05-20T03:11:34;11.10;99.90
41928;DHT22;27616;51.420;6.788;2023-05-20T03:14:00;11.00;99.90
41928;DHT22;27616;51.420;6.788;2023-05-20T03:16:26;11.00;99.90
41928;DHT22;27616;51.420;6.788;2023-05-20T03:18:52;11.00;99.90
41928;DHT22;27616;51.420;6.788;2023-05-20T03:21:19;10.90;99.90
41928;DHT22;27616;51.420;6.788;2023-05-20T03:23:48;10.90;99.90
41928;DHT22;27616;51.420;6.788;2023-05-20T03:26:14;10.80;99.90
41928;DHT22;27616;51.420;6.788;2023-05-20T03:28:40;10.80;99.90
41928;DHT22;27616;51.420;6.788;2023-05-20T03:31:06;10.80;99.90
41928;DHT22;27616;51.420;6.788;2023-05-20T03:33:34;10.80;99.90
41928;DHT22;27616;51.420;6.788;2023-05-20T03:36:00;10.90;99.90
41928;DHT22;27616;51.420;6.788;2023-05-20T03:38:26;10.90;99.90
41928;DHT22;27616;51.420;6.788;2023-05-20T03:40:52;10.90;99.90
41928;DHT22;27616;51.420;6.788;2023-05-20T03:43:17;11.00;99.90
41928;DHT22;27616;51.420;6.788;2023-05-20T03:45:44;10.90;99.90
41928;DHT22;27616;51.420;6.788;2023-05-20T03:48:09;11.00;99.90
41928;DHT22;27616;51.420;6.788;2023-05-20T03:50:35;11.00;99.90
41928;DHT22;27616;51.420;6.788;2023-05-20T03:53:01;11.00;99.90
41928;DHT22;27616;51.420;6.788;2023-05-20T03:55:32;11.10;99.90
41928;DHT22;27616;51.420;6.788;2023-05-20T03:58:00;11.10;99.90
41928;DHT22;27616;51.420;6.788;2023-05-20T04:00:26;11.10;99.90
41928;DHT22;27616;51.420;6.788;2023-05-20T04:02:52;11.10;99.90
41928;DHT22;27616;51.420;6.788;2023-05-20T04:05:18;11.10;99.90
41928;DHT22;27616;51.420;6.788;2023-05-20T04:07:45;11.20;99.90
41928;DHT22;27616;51.420;6.788;2023-05-20T04:10:12;11.20;99.90
41928;DHT22;27616;51.420;6.788;2023-05-20T04:12:38;11.20;99.90
41928;DHT22;27616;51.420;6.788;2023-05-20T04:15:05;11.20;99.90
41928;DHT22;27616;51.420;6.788;2023-05-20T04:17:51;11.20;99.90
41928;DHT22;27616;51.420;6.788;2023-05-20T04:20:17;11.30;99.90
41928;DHT22;27616;51.420;6.788;2023-05-20T04:22:44;11.30;99.90
41928;DHT22;27616;51.420;6.788;2023-05-20T04:25:11;11.40;99.90
41928;DHT22;27616;51.420;6.788;2023-05-20T04:27:38;11.40;99.90
41928;DHT22;27616;51.420;6.788;2023-05-20T04:30:05;11.40;99.90
41928;DHT22;27616;51.420;6.788;2023-05-20T04:32:33;11.40;99.90
41928;DHT22;27616;51.420;6.788;2023-05-20T04:34:59;11.40;99.90
41928;DHT22;27616;51.420;6.788;2023-05-20T04:37:27;11.40;99.90
41928;DHT22;27616;51.420;6.788;2023-05-20T04:39:53;11.50;99.90
41928;DHT22;27616;51.420;6.788;2023-05-20T04:42:19;11.50;99.90
41928;DHT22;27616;51.420;6.788;2023-05-20T04:44:47;11.50;99.90
41928;DHT22;27616;51.420;6.788;2023-05-20T04:47:14;11.60;99.90
41928;DHT22;27616;51.420;6.788;2023-05-20T04:49:40;11.60;99.90
41928;DHT22;27616;51.420;6.788;2023-05-20T04:52:06;11.60;99.90
41928;DHT22;27616;51.420;6.788;2023-05-20T04:54:32;11.70;99.90
41928;DHT22;27616;51.420;6.788;2023-05-20T04:56:58;11.70;99.90
41928;DHT22;27616;51.420;6.788;2023-05-20T04:59:24;11.80;99.90
41928;DHT22;27616;51.420;6.788;2023-05-20T05:01:50;11.80;99.90
41928;DHT22;27616;51.420;6.788;2023-05-20T05:04:16;11.90;99.90
41928;DHT22;27616;51.420;6.788;2023-05-20T05:06:42;12.00;99.90
41928;DHT22;27616;51.420;6.788;2023-05-20T05:09:08;12.10;99.90
41928;DHT22;27616;51.420;6.788;2023-05-20T05:11:36;12.20;99.90
41928;DHT22;27616;51.420;6.788;2023-05-20T05:14:03;12.30;99.90
41928;DHT22;27616;51.420;6.788;2023-05-20T05:16:29;12.30;99.90
41928;DHT22;27616;51.420;6.788;2023-05-20T05:18:55;12.30;99.90
41928;DHT22;27616;51.420;6.788;2023-05-20T05:21:21;12.40;99.90
41928;DHT22;27616;51.420;6.788;2023-05-20T05:23:47;12.40;99.90
41928;DHT22;27616;51.420;6.788;2023-05-20T05:26:13;12.40;99.90
41928;DHT22;27616;51.420;6.788;2023-05-20T05:28:41;12.50;99.90
41928;DHT22;27616;51.420;6.788;2023-05-20T05:31:08;12.50;99.90
41928;DHT22;27616;51.420;6.788;2023-05-20T05:33:34;12.50;99.90
41928;DHT22;27616;51.420;6.788;2023-05-20T05:36:00;12.60;99.90
41928;DHT22;27616;51.420;6.788;2023-05-20T05:38:28;12.70;99.90
41928;DHT22;27616;51.420;6.788;2023-05-20T05:40:54;12.80;99.90
41928;DHT22;27616;51.420;6.788;2023-05-20T05:43:20;12.90;99.90
41928;DHT22;27616;51.420;6.788;2023-05-20T05:45:47;12.90;99.90
41928;DHT22;27616;51.420;6.788;2023-05-20T05:48:12;13.00;99.90
41928;DHT22;27616;51.420;6.788;2023-05-20T05:50:42;13.10;99.90
41928;DHT22;27616;51.420;6.788;2023-05-20T05:53:07;13.10;99.90
41928;DHT22;27616;51.420;6.788;2023-05-20T05:55:35;13.20;99.90
41928;DHT22;27616;51.420;6.788;2023-05-20T05:58:01;13.30;99.90
41928;DHT22;27616;51.420;6.788;2023-05-20T06:00:28;13.40;99.90
41928;DHT22;27616;51.420;6.788;2023-05-20T06:02:54;13.50;99.90
41928;DHT22;27616;51.420;6.788;2023-05-20T06:05:32;13.70;99.90
41928;DHT22;27616;51.420;6.788;2023-05-20T06:07:58;13.80;99.90
41928;DHT22;27616;51.420;6.788;2023-05-20T06:10:24;14.00;99.90
41928;DHT22;27616;51.420;6.788;2023-05-20T06:12:50;14.00;99.90
41928;DHT22;27616;51.420;6.788;2023-05-20T06:15:16;14.10;99.90
41928;DHT22;27616;51.420;6.788;2023-05-20T06:17:43;14.20;99.90
41928;DHT22;27616;51.420;6.788;2023-05-20T06:20:09;14.30;99.90
41928;DHT22;27616;51.420;6.788;2023-05-20T06:22:35;14.40;99.90
41928;DHT22;27616;51.420;6.788;2023-05-20T06:25:01;14.50;99.90
41928;DHT22;27616;51.420;6.788;2023-05-20T06:27:28;14.60;99.90
41928;DHT22;27616;51.420;6.788;2023-05-20T06:29:54;14.70;99.90
41928;DHT22;27616;51.420;6.788;2023-05-20T06:32:21;14.90;99.90
41928;DHT22;27616;51.420;6.788;2023-05-20T06:34:47;14.90;99.90
41928;DHT22;27616;51.420;6.788;2023-05-20T06:37:12;14.90;99.90
41928;DHT22;27616;51.420;6.788;2023-05-20T06:39:39;14.90;99.90
41928;DHT22;27616;51.420;6.788;2023-05-20T06:42:06;14.90;99.90
41928;DHT22;27616;51.420;6.788;2023-05-20T06:44:34;14.90;99.90
41928;DHT22;27616;51.420;6.788;2023-05-20T06:47:14;15.00;99.90
41928;DHT22;27616;51.420;6.788;2023-05-20T06:49:42;15.20;99.90
41928;DHT22;27616;51.420;6.788;2023-05-20T06:52:08;15.30;99.90
41928;DHT22;27616;51.420;6.788;2023-05-20T06:54:33;15.30;99.90
41928;DHT22;27616;51.420;6.788;2023-05-20T06:57:06;15.30;99.90
41928;DHT22;27616;51.420;6.788;2023-05-20T06:59:31;15.30;99.90
41928;DHT22;27616;51.420;6.788;2023-05-20T07:01:58;15.50;99.90
41928;DHT22;27616;51.420;6.788;2023-05-20T07:04:23;15.60;99.90
41928;DHT22;27616;51.420;6.788;2023-05-20T07:06:49;15.70;99.90
41928;DHT22;27616;51.420;6.788;2023-05-20T07:09:15;15.60;99.90
41928;DHT22;27616;51.420;6.788;2023-05-20T07:11:41;15.60;99.90
41928;DHT22;27616;51.420;6.788;2023-05-20T07:14:06;15.80;99.90
41928;DHT22;27616;51.420;6.788;2023-05-20T07:16:34;15.90;99.90
41928;DHT22;27616;51.420;6.788;2023-05-20T07:19:02;16.10;99.90
41928;DHT22;27616;51.420;6.788;2023-05-20T07:21:27;16.10;99.90
41928;DHT22;27616;51.420;6.788;2023-05-20T07:24:00;16.20;99.90
41928;DHT22;27616;51.420;6.788;2023-05-20T07:26:25;16.10;99.90
41928;DHT22;27616;51.420;6.788;2023-05-20T07:28:51;16.00;99.90
41928;DHT22;27616;51.420;6.788;2023-05-20T07:31:17;16.00;99.90
41928;DHT22;27616;51.420;6.788;2023-05-20T07:33:44;16.00;99.90
41928;DHT22;27616;51.420;6.788;2023-05-20T07:36:10;15.90;99.90
41928;DHT22;27616;51.420;6.788;2023-05-20T07:38:37;16.00;99.90
41928;DHT22;27616;51.420;6.788;2023-05-20T07:41:06;16.00;99.90
41928;DHT22;27616;51.420;6.788;2023-05-20T07:43:32;16.10;99.90
41928;DHT22;27616;51.420;6.788;2023-05-20T07:45:58;16.10;99.90
41928;DHT22;27616;51.420;6.788;2023-05-20T07:48:24;16.10;99.90
41928;DHT22;27616;51.420;6.788;2023-05-20T07:50:50;16.10;99.90
41928;DHT22;27616;51.420;6.788;2023-05-20T07:53:17;16.10;99.90
41928;DHT22;27616;51.420;6.788;2023-05-20T07:55:43;16.10;99.90
41928;DHT22;27616;51.420;6.788;2023-05-20T07:58:09;16.10;99.90
41928;DHT22;27616;51.420;6.788;2023-05-20T08:00:35;16.00;99.90
41928;DHT22;27616;51.420;6.788;2023-05-20T08:03:05;16.10;99.90
41928;DHT22;27616;51.420;6.788;2023-05-20T08:05:52;16.00;99.90
41928;DHT22;27616;51.420;6.788;2023-05-20T08:08:18;16.00;99.90
41928;DHT22;27616;51.420;6.788;2023-05-20T08:10:52;16.00;99.90
41928;DHT22;27616;51.420;6.788;2023-05-20T08:13:21;16.00;99.90
41928;DHT22;27616;51.420;6.788;2023-05-20T08:15:47;16.00;99.90
41928;DHT22;27616;51.420;6.788;2023-05-20T08:18:14;15.90;99.90
41928;DHT22;27616;51.420;6.788;2023-05-20T08:20:40;15.90;99.90
41928;DHT22;27616;51.420;6.788;2023-05-20T08:23:07;15.90;99.90
41928;DHT22;27616;51.420;6.788;2023-05-20T08:25:33;16.00;99.90
41928;DHT22;27616;51.420;6.788;2023-05-20T08:28:02;16.00;99.90
41928;DHT22;27616;51.420;6.788;2023-05-20T08:30:34;16.00;99.90
41928;DHT22;27616;51.420;6.788;2023-05-20T08:33:00;16.10;99.90
41928;DHT22;27616;51.420;6.788;2023-05-20T08:35:27;16.20;99.90
41928;DHT22;27616;51.420;6.788;2023-05-20T08:37:53;16.20;99.90
41928;DHT22;27616;51.420;6.788;2023-05-20T08:40:19;16.30;99.90
41928;DHT22;27616;51.420;6.788;2023-05-20T08:42:47;16.40;99.90
41928;DHT22;27616;51.420;6.788;2023-05-20T08:45:16;16.50;99.90
41928;DHT22;27616;51.420;6.788;2023-05-20T08:47:43;16.60;99.90
41928;DHT22;27616;51.420;6.788;2023-05-20T08:50:10;16.60;99.90
41928;DHT22;27616;51.420;6.788;2023-05-20T08:52:42;16.70;99.90
41928;DHT22;27616;51.420;6.788;2023-05-20T08:55:13;16.70;99.90
41928;DHT22;27616;51.420;6.788;2023-05-20T08:57:39;16.80;99.90
41928;DHT22;27616;51.420;6.788;2023-05-20T09:00:07;16.90;99.90
41928;DHT22;27616;51.420;6.788;2023-05-20T09:02:40;17.10;99.90
41928;DHT22;27616;51.420;6.788;2023-05-20T09:05:07;17.10;99.90
41928;DHT22;27616;51.420;6.788;2023-05-20T09:07:35;17.10;99.90
41928;DHT22;27616;51.420;6.788;2023-05-20T09:10:01;17.00;99.90
41928;DHT22;27616;51.420;6.788;2023-05-20T09:12:27;17.00;99.90
41928;DHT22;27616;51.420;6.788;2023-05-20T09:14:52;17.00;99.90
41928;DHT22;27616;51.420;6.788;2023-05-20T09:17:20;17.10;99.90
41928;DHT22;27616;51.420;6.788;2023-05-20T09:19:49;17.10;99.90
41928;DHT22;27616;51.420;6.788;2023-05-20T09:22:21;17.10;99.90
41928;DHT22;27616;51.420;6.788;2023-05-20T09:24:47;17.10;99.90
41928;DHT22;27616;51.420;6.788;2023-05-20T09:27:13;17.20;99.90
41928;DHT22;27616;51.420;6.788;2023-05-20T09:29:39;17.20;99.90
41928;DHT22;27616;51.420;6.788;2023-05-20T09:32:04;17.20;99.90
41928;DHT22;27616;51.420;6.788;2023-05-20T09:34:31;17.30;99.90
41928;DHT22;27616;51.420;6.788;2023-05-20T09:36:58;17.40;99.90
41928;DHT22;27616;51.420;6.788;2023-05-20T09:39:24;17.40;99.90
41928;DHT22;27616;51.420;6.788;2023-05-20T09:42:00;17.50;99.90
41928;DHT22;27616;51.420;6.788;2023-05-20T09:44:28;17.50;99.90
41928;DHT22;27616;51.420;6.788;2023-05-20T09:46:55;17.60;99.90
41928;DHT22;27616;51.420;6.788;2023-05-20T09:49:21;17.70;99.90
41928;DHT22;27616;51.420;6.788;2023-05-20T09:51:48;17.60;99.90
41928;DHT22;27616;51.420;6.788;2023-05-20T09:54:17;17.50;99.90
41928;DHT22;27616;51.420;6.788;2023-05-20T09:56:45;17.40;99.90
41928;DHT22;27616;51.420;6.788;2023-05-20T09:59:10;17.50;99.90
41928;DHT22;27616;51.420;6.788;2023-05-20T10:01:37;17.50;99.90
41928;DHT22;27616;51.420;6.788;2023-05-20T10:04:04;17.60;99.90
41928;DHT22;27616;51.420;6.788;2023-05-20T10:09:41;17.60;99.90
41928;DHT22;27616;51.420;6.788;2023-05-20T10:20:01;17.30;99.90
41928;DHT22;27616;51.420;6.788;2023-05-20T10:22:28;17.20;99.90
41928;DHT22;27616;51.420;6.788;2023-05-20T10:25:04;17.10;99.90
41928;DHT22;27616;51.420;6.788;2023-05-20T10:27:45;17.10;99.90
41928;DHT22;27616;51.420;6.788;2023-05-20T10:30:18;17.10;99.90
41928;DHT22;27616;51.420;6.788;2023-05-20T10:32:54;17.10;99.90
41928;DHT22;27616;51.420;6.788;2023-05-20T10:35:23;17.10;99.90
41928;DHT22;27616;51.420;6.788;2023-05-20T10:37:52;17.10;99.90
41928;DHT22;27616;51.420;6.788;2023-05-20T10:40:20;17.20;99.90
41928;DHT22;27616;51.420;6.788;2023-05-20T10:42:46;17.20;99.90
41928;DHT22;27616;51.420;6.788;2023-05-20T10:45:24;17.10;99.90
41928;DHT22;27616;51.420;6.788;2023-05-20T10:47:55;17.30;99.90
41928;DHT22;27616;51.420;6.788;2023-05-20T10:50:35;17.10;99.90
41928;DHT22;27616;51.420;6.788;2023-05-20T10:53:05;17.00;99.90
41928;DHT22;27616;51.420;6.788;2023-05-20T10:55:38;17.00;99.90
41928;DHT22;27616;51.420;6.788;2023-05-20T10:58:05;17.00;99.90
41928;DHT22;27616;51.420;6.788;2023-05-20T11:00:34;17.00;99.90
41928;DHT22;27616;51.420;6.788;2023-05-20T11:03:01;17.10;99.90
41928;DHT22;27616;51.420;6.788;2023-05-20T11:05:28;17.10;99.90
41928;DHT22;27616;51.420;6.788;2023-05-20T11:08:01;17.10;99.90
41928;DHT22;27616;51.420;6.788;2023-05-20T11:10:27;17.20;99.90
41928;DHT22;27616;51.420;6.788;2023-05-20T11:12:54;17.20;99.90
41928;DHT22;27616;51.420;6.788;2023-05-20T11:15:21;17.20;99.90
41928;DHT22;27616;51.420;6.788;2023-05-20T11:17:54;17.30;99.90
41928;DHT22;27616;51.420;6.788;2023-05-20T11:20:24;17.40;99.90
41928;DHT22;27616;51.420;6.788;2023-05-20T11:22:51;17.30;99.90
41928;DHT22;27616;51.420;6.788;2023-05-20T11:25:17;17.40;99.90
41928;DHT22;27616;51.420;6.788;2023-05-20T11:27:44;17.40;99.90
41928;DHT22;27616;51.420;6.788;2023-05-20T11:30:13;17.30;99.90
41928;DHT22;27616;51.420;6.788;2023-05-20T11:32:59;17.40;99.90
41928;DHT22;27616;51.420;6.788;2023-05-20T11:35:27;17.40;99.90
41928;DHT22;27616;51.420;6.788;2023-05-20T11:37:55;17.50;99.90
41928;DHT22;27616;51.420;6.788;2023-05-20T11:40:25;17.60;99.90
41928;DHT22;27616;51.420;6.788;2023-05-20T11:42:55;17.60;99.90
41928;DHT22;27616;51.420;6.788;2023-05-20T11:45:22;17.60;99.90
41928;DHT22;27616;51.420;6.788;2023-05-20T11:48:01;17.60;99.90
41928;DHT22;27616;51.420;6.788;2023-05-20T11:50:27;17.80;99.90
41928;DHT22;27616;51.420;6.788;2023-05-20T11:52:57;17.80;99.90
41928;DHT22;27616;51.420;6.788;2023-05-20T11:55:24;17.90;99.90
41928;DHT22;27616;51.420;6.788;2023-05-20T11:57:51;18.10;99.90
41928;DHT22;27616;51.420;6.788;2023-05-20T12:00:17;18.20;99.90
41928;DHT22;27616;51.420;6.788;2023-05-20T12:02:43;18.30;99.90
41928;DHT22;27616;51.420;6.788;2023-05-20T12:05:09;18.40;99.90
41928;DHT22;27616;51.420;6.788;2023-05-20T12:07:34;18.60;99.90
41928;DHT22;27616;51.420;6.788;2023-05-20T12:10:02;18.70;99.90
41928;DHT22;27616;51.420;6.788;2023-05-20T12:12:28;18.70;99.90
41928;DHT22;27616;51.420;6.788;2023-05-20T12:14:54;18.80;99.90
41928;DHT22;27616;51.420;6.788;2023-05-20T12:17:20;18.90;99.90
41928;DHT22;27616;51.420;6.788;2023-05-20T12:19:45;19.00;99.90
41928;DHT22;27616;51.420;6.788;2023-05-20T12:22:11;19.10;99.90
41928;DHT22;27616;51.420;6.788;2023-05-20T12:24:37;19.20;99.90
41928;DHT22;27616;51.420;6.788;2023-05-20T12:27:03;19.40;99.90
41928;DHT22;27616;51.420;6.788;2023-05-20T12:29:31;19.60;99.90
41928;DHT22;27616;51.420;6.788;2023-05-20T12:31:57;19.80;99.90
41928;DHT22;27616;51.420;6.788;2023-05-20T12:34:23;19.80;99.80
41928;DHT22;27616;51.420;6.788;2023-05-20T12:36:48;19.80;99.50
41928;DHT22;27616;51.420;6.788;2023-05-20T12:39:14;19.90;99.90
41928;DHT22;27616;51.420;6.788;2023-05-20T12:41:42;20.00;99.30
41928;DHT22;27616;51.420;6.788;2023-05-20T12:44:08;20.10;98.80
41928;DHT22;27616;51.420;6.788;2023-05-20T12:46:35;20.20;99.00
41928;DHT22;27616;51.420;6.788;2023-05-20T12:49:02;20.20;97.80
41928;DHT22;27616;51.420;6.788;2023-05-20T12:51:28;20.30;98.60
41928;DHT22;27616;51.420;6.788;2023-05-20T12:53:54;20.20;98.60
41928;DHT22;27616;51.420;6.788;2023-05-20T12:56:19;20.20;98.30
41928;DHT22;27616;51.420;6.788;2023-05-20T12:58:47;20.30;98.20
41928;DHT22;27616;51.420;6.788;2023-05-20T13:01:12;20.20;98.10
41928;DHT22;27616;51.420;6.788;2023-05-20T13:03:38;20.10;98.40
41928;DHT22;27616;51.420;6.788;2023-05-20T13:06:04;20.10;98.20
41928;DHT22;27616;51.420;6.788;2023-05-20T13:08:30;20.00;98.10
41928;DHT22;27616;51.420;6.788;2023-05-20T13:10:56;19.90;98.40
41928;DHT22;27616;51.420;6.788;2023-05-20T13:13:22;19.80;98.50
41928;DHT22;27616;51.420;6.788;2023-05-20T13:15:48;19.70;98.30
41928;DHT22;27616;51.420;6.788;2023-05-20T13:18:14;19.60;98.60
41928;DHT22;27616;51.420;6.788;2023-05-20T13:20:43;19.60;98.10
41928;DHT22;27616;51.420;6.788;2023-05-20T13:23:09;19.70;98.30
41928;DHT22;27616;51.420;6.788;2023-05-20T13:25:35;19.70;98.80
41928;DHT22;27616;51.420;6.788;2023-05-20T13:28:02;19.70;98.20
41928;DHT22;27616;51.420;6.788;2023-05-20T13:30:28;19.70;98.50
41928;DHT22;27616;51.420;6.788;2023-05-20T13:32:53;19.70;98.10
41928;DHT22;27616;51.420;6.788;2023-05-20T13:35:19;19.80;98.20
41928;DHT22;27616;51.420;6.788;2023-05-20T13:37:45;19.80;98.20
41928;DHT22;27616;51.420;6.788;2023-05-20T13:40:11;19.70;98.30
41928;DHT22;27616;51.420;6.788;2023-05-20T13:42:37;19.70;98.00
41928;DHT22;27616;51.420;6.788;2023-05-20T13:45:03;19.60;97.90
41928;DHT22;27616;51.420;6.788;2023-05-20T13:47:29;19.50;98.20
41928;DHT22;27616;51.420;6.788;2023-05-20T13:49:54;19.40;98.30
41928;DHT22;27616;51.420;6.788;2023-05-20T13:52:20;19.40;98.10
41928;DHT22;27616;51.420;6.788;2023-05-20T13:54:46;19.40;98.00
41928;DHT22;27616;51.420;6.788;2023-05-20T13:57:13;19.40;98.30
41928;DHT22;27616;51.420;6.788;2023-05-20T13:59:39;19.40;99.10
41928;DHT22;27616;51.420;6.788;2023-05-20T14:02:06;19.40;98.70
41928;DHT22;27616;51.420;6.788;2023-05-20T14:04:31;19.40;98.60
41928;DHT22;27616;51.420;6.788;2023-05-20T14:07:03;19.30;98.30
41928;DHT22;27616;51.420;6.788;2023-05-20T14:09:29;19.30;99.50
41928;DHT22;27616;51.420;6.788;2023-05-20T14:11:55;19.30;98.20
41928;DHT22;27616;51.420;6.788;2023-05-20T14:14:21;19.30;98.70
41928;DHT22;27616;51.420;6.788;2023-05-20T14:16:46;19.30;98.60
41928;DHT22;27616;51.420;6.788;2023-05-20T14:19:12;19.30;99.00
41928;DHT22;27616;51.420;6.788;2023-05-20T14:21:38;19.30;98.70
41928;DHT22;27616;51.420;6.788;2023-05-20T14:24:04;19.30;98.30
41928;DHT22;27616;51.420;6.788;2023-05-20T14:26:32;19.40;98.60
41928;DHT22;27616;51.420;6.788;2023-05-20T14:28:58;19.40;98.60
41928;DHT22;27616;51.420;6.788;2023-05-20T14:31:25;19.40;98.60
41928;DHT22;27616;51.420;6.788;2023-05-20T14:33:51;19.40;98.10
41928;DHT22;27616;51.420;6.788;2023-05-20T14:36:17;19.40;98.00
41928;DHT22;27616;51.420;6.788;2023-05-20T14:38:51;19.50;97.90
41928;DHT22;27616;51.420;6.788;2023-05-20T14:41:16;19.50;98.20
41928;DHT22;27616;51.420;6.788;2023-05-20T14:43:42;19.50;98.00
41928;DHT22;27616;51.420;6.788;2023-05-20T14:46:08;19.60;98.50
41928;DHT22;27616;51.420;6.788;2023-05-20T14:48:34;19.60;98.20
41928;DHT22;27616;51.420;6.788;2023-05-20T14:51:00;19.60;98.10
41928;DHT22;27616;51.420;6.788;2023-05-20T14:53:26;19.60;98.40
41928;DHT22;27616;51.420;6.788;2023-05-20T14:55:51;19.70;98.00
41928;DHT22;27616;51.420;6.788;2023-05-20T14:58:17;19.80;97.40
41928;DHT22;27616;51.420;6.788;2023-05-20T15:00:43;19.90;98.20
41928;DHT22;27616;51.420;6.788;2023-05-20T15:03:08;20.00;97.80
41928;DHT22;27616;51.420;6.788;2023-05-20T15:05:34;20.10;97.10
41928;DHT22;27616;51.420;6.788;2023-05-20T15:08:00;20.10;97.50
41928;DHT22;27616;51.420;6.788;2023-05-20T15:10:26;20.00;97.20
41928;DHT22;27616;51.420;6.788;2023-05-20T15:12:51;20.00;97.40
41928;DHT22;27616;51.420;6.788;2023-05-20T15:15:19;19.90;97.30
41928;DHT22;27616;51.420;6.788;2023-05-20T15:17:44;19.90;97.40
41928;DHT22;27616;51.420;6.788;2023-05-20T15:20:11;19.70;97.50
41928;DHT22;27616;51.420;6.788;2023-05-20T15:22:37;19.60;97.80
41928;DHT22;27616;51.420;6.788;2023-05-20T15:25:02;19.60;97.70
41928;DHT22;27616;51.420;6.788;2023-05-20T15:27:28;19.70;97.60
41928;DHT22;27616;51.420;6.788;2023-05-20T15:29:54;19.70;97.60
41928;DHT22;27616;51.420;6.788;2023-05-20T15:32:20;19.70;97.40
41928;DHT22;27616;51.420;6.788;2023-05-20T15:34:45;19.60;97.60
41928;DHT22;27616;51.420;6.788;2023-05-20T15:37:11;19.60;97.60
41928;DHT22;27616;51.420;6.788;2023-05-20T15:39:37;19.70;97.60
41928;DHT22;27616;51.420;6.788;2023-05-20T15:42:03;19.60;97.90